Time;durP1;ratioP1;P1;durP2;ratioP2;P2;SDS_P1;SDS_P2;PMS_P1;PMS_P2;Temp;Humidity;BMP_temperature;BMP_pressure;BME280_temperature;BME280_humidity;BME280_pressure;Samples;Min_cycle;Max_cycle;Signal;HPM_P1;HPM_P2
2022/10/29 00:01:15;;;;;;;14.07;8.23;;;;;;;;;;5137408;27;20027;-73
2022/10/29 00:04:01;;;;;;;12.82;8.43;;;;;;;;;;5137100;27;20102;-73
2022/10/29 00:06:47;;;;;;;9.98;7.10;;;;;;;;;;5137187;27;20365;-71
2022/10/29 00:09:34;;;;;;;11.85;6.72;;;;;;;;;;5137382;27;20031;-73
2022/10/29 00:12:20;;;;;;;8.48;6.50;;;;;;;;;;5137418;27;20020;-73
2022/10/29 00:15:05;;;;;;;10.50;7.45;;;;;;;;;;5137214;27;20023;-72
2022/10/29 00:17:51;;;;;;;13.35;7.75;;;;;;;;;;5136901;27;20034;-72
2022/10/29 00:20:36;;;;;;;13.68;8.23;;;;;;;;;;5136771;27;20111;-72
2022/10/29 00:23:22;;;;;;;14.63;8.88;;;;;;;;;;5137016;27;20449;-72
2022/10/29 00:26:08;;;;;;;14.20;9.05;;;;;;;;;;5137289;27;20033;-72
2022/10/29 00:28:54;;;;;;;14.93;8.93;;;;;;;;;;5136952;27;20077;-72
2022/10/29 00:31:40;;;;;;;14.27;8.70;;;;;;;;;;5136974;27;20057;-72
2022/10/29 00:34:26;;;;;;;15.13;9.40;;;;;;;;;;5136561;27;20019;-73
2022/10/29 00:37:11;;;;;;;15.75;9.55;;;;;;;;;;5136901;27;20122;-74
2022/10/29 00:39:57;;;;;;;13.70;9.10;;;;;;;;;;5121564;27;20023;-72
2022/10/29 00:42:42;;;;;;;16.52;9.68;;;;;;;;;;5137303;27;20508;-72
2022/10/29 00:45:28;;;;;;;15.52;9.90;;;;;;;;;;5136459;27;20054;-72
2022/10/29 00:48:14;;;;;;;15.07;9.98;;;;;;;;;;5135873;27;20021;-73
2022/10/29 00:51:02;;;;;;;15.23;9.15;;;;;;;;;;5135687;27;20459;-73
2022/10/29 00:53:51;;;;;;;17.90;9.60;;;;;;;;;;5135925;27;20029;-72
2022/10/29 00:56:48;;;;;;;14.75;9.52;;;;;;;;;;5136110;27;20456;-73
2022/10/29 00:59:33;;;;;;;17.05;9.65;;;;;;;;;;5135699;27;20023;-73
2022/10/29 01:02:19;;;;;;;14.70;9.70;;;;;;;;;;5135756;27;20624;-72
2022/10/29 01:05:06;;;;;;;15.32;9.95;;;;;;;;;;5137083;27;20019;-73
2022/10/29 01:07:51;;;;;;;16.40;9.73;;;;;;;;;;5136556;27;20457;-72
2022/10/29 01:10:43;;;;;;;17.83;11.00;;;;;;;;;;5136386;27;20359;-72
2022/10/29 01:13:29;;;;;;;19.90;10.50;;;;;;;;;;5134550;27;20026;-73
2022/10/29 01:16:29;;;;;;;23.65;11.35;;;;;;;;;;5134828;27;20031;-72
2022/10/29 01:19:14;;;;;;;16.40;10.65;;;;;;;;;;5125244;27;20027;-72
2022/10/29 01:22:00;;;;;;;20.52;11.23;;;;;;;;;;5138782;27;20333;-74
2022/10/29 01:24:53;;;;;;;19.92;11.82;;;;;;;;;;5134296;27;20050;-73
2022/10/29 01:27:49;;;;;;;19.88;11.95;;;;;;;;;;5119947;27;20015;-71
2022/10/29 01:30:47;;;;;;;18.60;11.20;;;;;;;;;;5120199;27;20031;-72
2022/10/29 01:33:44;;;;;;;19.05;11.73;;;;;;;;;;5134175;27;20023;-72
2022/10/29 01:36:47;;;;;;;17.48;10.50;;;;;;;;;;5134469;27;20034;-72
2022/10/29 01:39:41;;;;;;;21.25;11.27;;;;;;;;;;5120089;27;20023;-71
2022/10/29 01:42:47;;;;;;;19.30;11.65;;;;;;;;;;5120231;27;20015;-73
2022/10/29 01:45:37;;;;;;;18.33;11.18;;;;;;;;;;5134802;27;20122;-73
2022/10/29 01:48:28;;;;;;;21.15;11.18;;;;;;;;;;5134537;27;20015;-72
2022/10/29 01:51:25;;;;;;;23.05;12.07;;;;;;;;;;5119927;28;20027;-73
2022/10/29 01:54:11;;;;;;;17.45;10.80;;;;;;;;;;5133893;27;20026;-73
2022/10/29 01:56:57;;;;;;;24.05;13.63;;;;;;;;;;5133699;27;20448;-72
2022/10/29 01:59:43;;;;;;;23.50;13.50;;;;;;;;;;5134912;27;20016;-72
2022/10/29 02:02:47;;;;;;;18.95;10.95;;;;;;;;;;5133911;28;20334;-72
2022/10/29 02:05:41;;;;;;;21.67;12.95;;;;;;;;;;5135762;28;20094;-73
2022/10/29 02:08:45;;;;;;;20.63;10.85;;;;;;;;;;5134578;28;20473;-73
2022/10/29 02:11:47;;;;;;;23.35;10.95;;;;;;;;;;5136800;27;20038;-73
2022/10/29 02:14:35;;;;;;;17.92;10.75;;;;;;;;;;5123635;27;20153;-72
2022/10/29 02:17:20;;;;;;;16.15;10.20;;;;;;;;;;5138058;27;20023;-72
2022/10/29 02:20:08;;;;;;;15.35;9.98;;;;;;;;;;5139321;27;20023;-72
2022/10/29 02:22:53;;;;;;;15.80;9.63;;;;;;;;;;5140759;27;20051;-72
2022/10/29 02:25:39;;;;;;;16.45;9.50;;;;;;;;;;5157280;27;20420;-72
2022/10/29 02:28:25;;;;;;;12.80;8.40;;;;;;;;;;5142282;27;20099;-72
2022/10/29 02:31:10;;;;;;;13.45;8.38;;;;;;;;;;5140677;27;20019;-73
2022/10/29 02:33:56;;;;;;;11.00;7.55;;;;;;;;;;5139056;27;20444;-74
2022/10/29 02:36:41;;;;;;;12.43;7.38;;;;;;;;;;5142032;27;20116;-72
2022/10/29 02:39:27;;;;;;;11.73;7.20;;;;;;;;;;5139225;27;20098;-73
2022/10/29 02:42:12;;;;;;;11.00;7.20;;;;;;;;;;5125276;27;20019;-73
2022/10/29 02:44:58;;;;;;;11.73;6.97;;;;;;;;;;5139131;27;20049;-73
2022/10/29 02:47:43;;;;;;;12.52;7.70;;;;;;;;;;5139124;27;20059;-73
2022/10/29 02:50:29;;;;;;;14.30;7.40;;;;;;;;;;5124273;27;20011;-73
2022/10/29 02:53:15;;;;;;;9.10;7.05;;;;;;;;;;5138764;27;20012;-72
2022/10/29 02:56:00;;;;;;;11.52;7.25;;;;;;;;;;5138681;27;20019;-73
2022/10/29 02:58:46;;;;;;;14.25;7.47;;;;;;;;;;5138963;27;20065;-72
2022/10/29 03:01:31;;;;;;;10.43;7.35;;;;;;;;;;5138495;27;20031;-72
2022/10/29 03:04:17;;;;;;;13.25;7.43;;;;;;;;;;5138132;27;20094;-73
2022/10/29 03:07:03;;;;;;;13.90;6.82;;;;;;;;;;5138283;27;20025;-72
2022/10/29 03:09:48;;;;;;;10.50;7.45;;;;;;;;;;5137951;27;20012;-72
2022/10/29 03:12:34;;;;;;;13.25;7.40;;;;;;;;;;5138503;27;20020;-73
2022/10/29 03:15:19;;;;;;;11.93;7.00;;;;;;;;;;5138380;27;20031;-73
2022/10/29 03:18:05;;;;;;;14.05;7.10;;;;;;;;;;5123479;27;20361;-72
2022/10/29 03:20:50;;;;;;;11.80;7.63;;;;;;;;;;5138232;27;20031;-73
2022/10/29 03:23:36;;;;;;;12.43;7.28;;;;;;;;;;5137916;27;20419;-72
2022/10/29 03:26:22;;;;;;;14.20;7.57;;;;;;;;;;5138070;27;20076;-73
2022/10/29 03:29:07;;;;;;;11.27;7.00;;;;;;;;;;5138149;27;20108;-72
2022/10/29 03:31:53;;;;;;;10.43;6.63;;;;;;;;;;5122726;27;20031;-72
2022/10/29 03:34:38;;;;;;;12.05;7.22;;;;;;;;;;5122043;27;20077;-72
2022/10/29 03:37:24;;;;;;;9.90;6.75;;;;;;;;;;5138089;27;20019;-73
2022/10/29 03:40:10;;;;;;;12.98;7.15;;;;;;;;;;5138090;27;20027;-72
2022/10/29 03:42:56;;;;;;;9.32;6.88;;;;;;;;;;5138413;27;20480;-72
2022/10/29 03:45:42;;;;;;;11.75;7.47;;;;;;;;;;5138101;27;20054;-72
2022/10/29 03:48:27;;;;;;;13.82;7.03;;;;;;;;;;5123029;27;20031;-72
2022/10/29 03:51:13;;;;;;;12.57;7.20;;;;;;;;;;5136108;27;20019;-72
2022/10/29 03:53:59;;;;;;;13.90;7.70;;;;;;;;;;5138416;27;20019;-72
2022/10/29 03:56:44;;;;;;;14.68;7.93;;;;;;;;;;5136736;27;20046;-72
2022/10/29 03:59:30;;;;;;;14.30;7.38;;;;;;;;;;5137405;27;20024;-72
2022/10/29 04:02:15;;;;;;;11.95;7.20;;;;;;;;;;5138130;27;20035;-72
2022/10/29 04:05:01;;;;;;;10.18;7.70;;;;;;;;;;5137578;27;20080;-72
2022/10/29 04:07:46;;;;;;;12.80;7.13;;;;;;;;;;5121736;27;20016;-73
2022/10/29 04:10:32;;;;;;;10.95;7.22;;;;;;;;;;5136729;27;20023;-72
2022/10/29 04:13:18;;;;;;;11.48;7.68;;;;;;;;;;5136895;27;20410;-72
2022/10/29 04:16:03;;;;;;;12.60;8.20;;;;;;;;;;5122989;27;20030;-73
2022/10/29 04:18:49;;;;;;;12.63;8.27;;;;;;;;;;5136852;27;20023;-72
2022/10/29 04:21:35;;;;;;;17.00;8.70;;;;;;;;;;5137420;27;20026;-72
2022/10/29 04:24:20;;;;;;;18.10;9.63;;;;;;;;;;5136137;27;20039;-73
2022/10/29 04:27:06;;;;;;;13.27;8.38;;;;;;;;;;5135943;27;20035;-73
2022/10/29 04:29:51;;;;;;;13.63;8.48;;;;;;;;;;5122483;27;20025;-73
2022/10/29 04:32:37;;;;;;;13.00;8.95;;;;;;;;;;5121194;27;20016;-72
2022/10/29 04:35:23;;;;;;;15.48;8.57;;;;;;;;;;5135836;27;20026;-72
2022/10/29 04:38:09;;;;;;;20.23;9.70;;;;;;;;;;5121412;27;20110;-72
2022/10/29 04:40:58;;;;;;;16.42;9.23;;;;;;;;;;5122872;27;20080;-74
2022/10/29 04:43:44;;;;;;;14.77;8.88;;;;;;;;;;5136246;27;20023;-73
2022/10/29 04:46:29;;;;;;;15.77;8.18;;;;;;;;;;5136587;27;20031;-73
2022/10/29 04:49:15;;;;;;;19.10;9.07;;;;;;;;;;5137307;27;20436;-72
2022/10/29 04:52:01;;;;;;;16.13;9.15;;;;;;;;;;5136701;27;20027;-73
2022/10/29 04:54:46;;;;;;;14.38;9.23;;;;;;;;;;5135547;27;20046;-73
2022/10/29 04:57:32;;;;;;;14.15;8.73;;;;;;;;;;5136177;27;20023;-72
2022/10/29 05:00:17;;;;;;;14.55;9.05;;;;;;;;;;5136449;27;20433;-73
2022/10/29 05:03:03;;;;;;;16.98;8.93;;;;;;;;;;5136501;27;20027;-72
2022/10/29 05:05:49;;;;;;;18.10;9.00;;;;;;;;;;5136771;27;20414;-73
2022/10/29 05:08:34;;;;;;;16.40;9.07;;;;;;;;;;5136008;27;20168;-73
2022/10/29 05:11:20;;;;;;;14.20;8.98;;;;;;;;;;5121427;27;20015;-73
2022/10/29 05:14:05;;;;;;;22.10;9.52;;;;;;;;;;5135727;27;20019;-72
2022/10/29 05:16:51;;;;;;;19.23;9.00;;;;;;;;;;5135037;27;20031;-74
2022/10/29 05:19:37;;;;;;;16.65;8.90;;;;;;;;;;5135728;27;20041;-73
2022/10/29 05:22:22;;;;;;;15.45;9.23;;;;;;;;;;5136513;27;20027;-72
2022/10/29 05:25:08;;;;;;;15.50;9.20;;;;;;;;;;5135724;27;20012;-73
2022/10/29 05:28:00;;;;;;;16.55;9.60;;;;;;;;;;5135827;27;20026;-73
2022/10/29 05:30:47;;;;;;;12.90;8.23;;;;;;;;;;5135211;27;20433;-73
2022/10/29 05:33:32;;;;;;;13.98;8.57;;;;;;;;;;5121384;27;20142;-73
2022/10/29 05:36:18;;;;;;;12.40;8.50;;;;;;;;;;5135316;27;20015;-72
2022/10/29 05:39:03;;;;;;;11.13;7.82;;;;;;;;;;5135868;27;20042;-72
2022/10/29 05:41:49;;;;;;;11.48;7.45;;;;;;;;;;5135009;27;20436;-71
2022/10/29 05:44:34;;;;;;;14.80;7.93;;;;;;;;;;5120224;27;20024;-71
2022/10/29 05:47:20;;;;;;;12.77;7.97;;;;;;;;;;5134725;27;20071;-73
2022/10/29 05:50:06;;;;;;;13.32;8.30;;;;;;;;;;5120400;27;20015;-72
2022/10/29 05:52:55;;;;;;;12.38;8.07;;;;;;;;;;5122216;27;20321;-73
2022/10/29 05:55:41;;;;;;;14.07;7.85;;;;;;;;;;5120831;27;20015;-73
2022/10/29 05:58:26;;;;;;;12.68;7.93;;;;;;;;;;5135256;27;20072;-73
2022/10/29 06:01:12;;;;;;;13.05;8.10;;;;;;;;;;5135757;28;20452;-71
2022/10/29 06:04:00;;;;;;;14.07;8.38;;;;;;;;;;5134813;28;20023;-72
2022/10/29 06:06:45;;;;;;;46.45;11.15;;;;;;;;;;5135477;28;20030;-72
2022/10/29 06:09:31;;;;;;;24.77;9.35;;;;;;;;;;5134011;28;20453;-72
2022/10/29 06:12:16;;;;;;;14.02;8.50;;;;;;;;;;5135738;28;20023;-72
2022/10/29 06:15:02;;;;;;;10.93;8.40;;;;;;;;;;5120345;28;20160;-72
2022/10/29 06:17:48;;;;;;;12.90;7.38;;;;;;;;;;5134802;28;20023;-72
2022/10/29 06:20:34;;;;;;;14.32;7.85;;;;;;;;;;5135679;27;20031;-72
2022/10/29 06:23:20;;;;;;;12.25;8.00;;;;;;;;;;5135235;28;20440;-73
2022/10/29 06:26:05;;;;;;;14.95;8.77;;;;;;;;;;5134739;28;20028;-72
2022/10/29 06:28:53;;;;;;;12.05;7.30;;;;;;;;;;5135353;28;20016;-72
2022/10/29 06:31:39;;;;;;;15.02;8.02;;;;;;;;;;5142459;28;20050;-71
2022/10/29 06:34:24;;;;;;;97.93;18.00;;;;;;;;;;5146629;28;20019;-71
2022/10/29 06:37:10;;;;;;;32.03;10.60;;;;;;;;;;5135245;28;20023;-71
2022/10/29 06:39:56;;;;;;;18.45;8.52;;;;;;;;;;5133297;28;20011;-73
2022/10/29 06:42:41;;;;;;;15.77;9.55;;;;;;;;;;5134978;28;20011;-73
2022/10/29 06:45:28;;;;;;;22.73;10.63;;;;;;;;;;5134361;28;20050;-73
2022/10/29 06:48:13;;;;;;;25.92;10.23;;;;;;;;;;5105341;28;20023;-72
2022/10/29 06:50:59;;;;;;;15.98;8.73;;;;;;;;;;5105996;28;20019;-74
2022/10/29 06:53:45;;;;;;;21.80;9.50;;;;;;;;;;5134381;28;20015;-73
2022/10/29 06:56:30;;;;;;;23.95;9.57;;;;;;;;;;5135180;27;20023;-72
2022/10/29 06:59:16;;;;;;;20.35;9.32;;;;;;;;;;5138437;27;20015;-74
2022/10/29 07:02:01;;;;;;;17.45;8.57;;;;;;;;;;5122538;27;20114;-73
2022/10/29 07:04:47;;;;;;;16.52;8.32;;;;;;;;;;5138994;27;20007;-72
2022/10/29 07:07:33;;;;;;;18.25;9.20;;;;;;;;;;5138856;27;20019;-72
2022/10/29 07:10:18;;;;;;;17.60;8.20;;;;;;;;;;5137986;27;20031;-72
2022/10/29 07:13:04;;;;;;;16.73;8.75;;;;;;;;;;5141099;27;20023;-70
2022/10/29 07:15:50;;;;;;;13.15;8.25;;;;;;;;;;5127033;27;20011;-71
2022/10/29 07:18:36;;;;;;;15.05;8.00;;;;;;;;;;5125115;27;20035;-72
2022/10/29 07:21:21;;;;;;;17.40;7.88;;;;;;;;;;5142278;27;20030;-73
2022/10/29 07:24:07;;;;;;;13.48;9.15;;;;;;;;;;5138640;27;20331;-74
2022/10/29 07:26:53;;;;;;;13.88;8.27;;;;;;;;;;5137725;27;20043;-73
2022/10/29 07:29:38;;;;;;;11.75;7.72;;;;;;;;;;5138529;27;20023;-73
2022/10/29 07:32:24;;;;;;;11.05;7.70;;;;;;;;;;5137834;27;20020;-72
2022/10/29 07:35:09;;;;;;;12.48;7.10;;;;;;;;;;5138029;27;20019;-73
2022/10/29 07:37:59;;;;;;;11.93;7.00;;;;;;;;;;5137535;27;20023;-73
2022/10/29 07:40:46;;;;;;;16.35;7.60;;;;;;;;;;5138495;27;20440;-72
2022/10/29 07:43:32;;;;;;;12.40;7.32;;;;;;;;;;5138020;27;20034;-72
2022/10/29 07:46:17;;;;;;;17.35;7.80;;;;;;;;;;5137872;27;20046;-72
2022/10/29 07:49:03;;;;;;;10.77;6.72;;;;;;;;;;5136492;27;20098;-72
2022/10/29 07:51:48;;;;;;;12.30;6.65;;;;;;;;;;5137548;27;20031;-72
2022/10/29 07:54:34;;;;;;;8.52;6.13;;;;;;;;;;5138880;27;20015;-75
2022/10/29 07:57:21;;;;;;;9.32;6.57;;;;;;;;;;5138152;27;20027;-71
2022/10/29 08:00:07;;;;;;;9.43;5.70;;;;;;;;;;5138130;27;20030;-73
2022/10/29 08:02:53;;;;;;;8.18;6.15;;;;;;;;;;5138106;27;20452;-73
2022/10/29 08:05:39;;;;;;;13.38;6.25;;;;;;;;;;5137039;27;20023;-73
2022/10/29 08:08:25;;;;;;;12.68;6.38;;;;;;;;;;5138678;27;20015;-74
2022/10/29 08:11:10;;;;;;;11.80;6.32;;;;;;;;;;5137726;27;20023;-71
2022/10/29 08:13:56;;;;;;;10.63;6.60;;;;;;;;;;5121652;27;20019;-73
2022/10/29 08:16:41;;;;;;;10.10;6.57;;;;;;;;;;5136737;27;20023;-74
2022/10/29 08:19:28;;;;;;;13.70;6.97;;;;;;;;;;5136947;27;20027;-73
2022/10/29 08:22:14;;;;;;;9.18;6.40;;;;;;;;;;5136974;27;20019;-74
2022/10/29 08:24:59;;;;;;;8.50;5.85;;;;;;;;;;5137042;27;20494;-74
2022/10/29 08:27:56;;;;;;;7.40;5.30;;;;;;;;;;5136633;27;20098;-75
2022/10/29 08:30:42;;;;;;;8.43;5.70;;;;;;;;;;5137142;27;20080;-73
2022/10/29 08:33:28;;;;;;;8.63;5.95;;;;;;;;;;5137225;27;20041;-73
2022/10/29 08:36:14;;;;;;;9.30;5.72;;;;;;;;;;5136747;27;20023;-74
2022/10/29 08:39:00;;;;;;;9.68;5.95;;;;;;;;;;5137406;27;20030;-74
2022/10/29 08:42:01;;;;;;;8.55;6.03;;;;;;;;;;5136334;27;20015;-74
2022/10/29 08:44:49;;;;;;;11.73;6.38;;;;;;;;;;5137075;27;20035;-73
2022/10/29 08:47:46;;;;;;;11.82;6.45;;;;;;;;;;5137432;27;20038;-77
2022/10/29 08:50:33;;;;;;;11.25;6.47;;;;;;;;;;5137141;27;20353;-72
2022/10/29 08:53:24;;;;;;;17.85;8.10;;;;;;;;;;5123520;27;20038;-73
2022/10/29 08:56:14;;;;;;;12.70;7.15;;;;;;;;;;5137662;27;20026;-74
2022/10/29 08:59:00;;;;;;;12.88;6.78;;;;;;;;;;5138127;27;20027;-74
2022/10/29 09:01:46;;;;;;;9.63;7.00;;;;;;;;;;5121712;27;20372;-73
2022/10/29 09:04:33;;;;;;;12.52;6.97;;;;;;;;;;5138021;27;20160;-72
2022/10/29 09:07:24;;;;;;;8.52;6.10;;;;;;;;;;5136535;27;20031;-72
2022/10/29 09:10:25;;;;;;;12.40;7.13;;;;;;;;;;5136544;27;20020;-72
2022/10/29 09:13:11;;;;;;;10.93;6.78;;;;;;;;;;5136448;27;20007;-72
2022/10/29 09:15:56;;;;;;;8.77;6.35;;;;;;;;;;5136680;27;20437;-73
2022/10/29 09:18:57;;;;;;;9.00;6.18;;;;;;;;;;5134998;27;20437;-72
2022/10/29 09:21:46;;;;;;;10.88;6.15;;;;;;;;;;5138981;27;20023;-72
2022/10/29 09:24:36;;;;;;;12.55;6.20;;;;;;;;;;5136566;27;20019;-73
2022/10/29 09:27:46;;;;;;;8.90;6.40;;;;;;;;;;5122994;27;20015;-73
2022/10/29 09:30:38;;;;;;;11.85;6.60;;;;;;;;;;5136945;27;20348;-73
2022/10/29 09:33:24;;;;;;;10.40;5.97;;;;;;;;;;5135759;27;20095;-71
2022/10/29 09:36:13;;;;;;;11.77;6.40;;;;;;;;;;5136780;27;20502;-73
2022/10/29 09:39:01;;;;;;;13.10;6.53;;;;;;;;;;5135328;27;20034;-73
2022/10/29 09:41:47;;;;;;;15.40;6.55;;;;;;;;;;5136519;27;20026;-73
2022/10/29 09:44:45;;;;;;;11.20;6.13;;;;;;;;;;5135734;27;20047;-74
2022/10/29 09:47:46;;;;;;;9.73;6.88;;;;;;;;;;5135246;27;20026;-74
2022/10/29 09:50:32;;;;;;;16.30;6.90;;;;;;;;;;5135627;27;20026;-73
2022/10/29 09:53:17;;;;;;;12.82;8.20;;;;;;;;;;5119842;28;20019;-72
2022/10/29 09:56:06;;;;;;;10.60;7.07;;;;;;;;;;5135571;27;20398;-72
2022/10/29 09:58:52;;;;;;;15.38;7.20;;;;;;;;;;5135948;27;20012;-73
2022/10/29 10:01:38;;;;;;;13.60;8.32;;;;;;;;;;5133708;27;20027;-72
2022/10/29 10:04:34;;;;;;;12.50;7.43;;;;;;;;;;5135732;28;20081;-72
2022/10/29 10:07:20;;;;;;;10.80;6.70;;;;;;;;;;5121724;28;20015;-73
2022/10/29 10:10:07;;;;;;;11.48;7.35;;;;;;;;;;5135286;28;20023;-73
2022/10/29 10:13:00;;;;;;;13.43;6.90;;;;;;;;;;5135498;28;20054;-73
2022/10/29 10:15:48;;;;;;;13.38;7.22;;;;;;;;;;5121519;28;20080;-72
2022/10/29 10:18:38;;;;;;;10.60;6.30;;;;;;;;;;5135484;27;20098;-72
2022/10/29 10:21:24;;;;;;;10.02;6.18;;;;;;;;;;5120757;28;20019;-72
2022/10/29 10:24:26;;;;;;;14.73;6.90;;;;;;;;;;5120101;28;20022;-72
2022/10/29 10:27:18;;;;;;;15.38;6.35;;;;;;;;;;5134996;28;20022;-73
2022/10/29 10:30:04;;;;;;;9.00;6.22;;;;;;;;;;5120758;28;20023;-72
2022/10/29 10:32:49;;;;;;;10.20;6.22;;;;;;;;;;5137632;27;20080;-72
2022/10/29 10:35:36;;;;;;;12.25;6.45;;;;;;;;;;5139624;27;20026;-72
2022/10/29 10:38:22;;;;;;;11.90;6.30;;;;;;;;;;5138735;27;20015;-73
2022/10/29 10:41:08;;;;;;;9.20;5.45;;;;;;;;;;5139294;27;20023;-72
2022/10/29 10:43:56;;;;;;;16.67;5.68;;;;;;;;;;5139476;27;20376;-73
2022/10/29 10:46:43;;;;;;;8.73;5.32;;;;;;;;;;5138870;27;20058;-72
2022/10/29 10:49:30;;;;;;;10.88;5.82;;;;;;;;;;5139368;27;20027;-72
2022/10/29 10:52:18;;;;;;;8.82;5.97;;;;;;;;;;5123521;27;20019;-72
2022/10/29 10:55:27;;;;;;;11.35;6.20;;;;;;;;;;5138838;27;20019;-74
2022/10/29 10:58:12;;;;;;;9.65;5.53;;;;;;;;;;5138883;27;20031;-72
2022/10/29 11:00:58;;;;;;;9.00;4.70;;;;;;;;;;5139220;27;20019;-73
2022/10/29 11:04:10;;;;;;;8.00;5.05;;;;;;;;;;5138348;27;20156;-71
2022/10/29 11:06:59;;;;;;;8.25;4.93;;;;;;;;;;5117911;27;20110;-72
2022/10/29 11:09:47;;;;;;;11.60;4.97;;;;;;;;;;5139114;27;20015;-72
2022/10/29 11:12:40;;;;;;;6.97;4.53;;;;;;;;;;5138862;27;20074;-74
2022/10/29 11:15:35;;;;;;;9.57;5.15;;;;;;;;;;5123726;27;20080;-72
2022/10/29 11:18:32;;;;;;;7.97;5.22;;;;;;;;;;5137322;27;20062;-73
2022/10/29 11:21:23;;;;;;;9.32;5.38;;;;;;;;;;5138150;27;20491;-72
2022/10/29 11:24:28;;;;;;;7.55;4.80;;;;;;;;;;5137998;27;20159;-73
2022/10/29 11:27:26;;;;;;;7.15;4.47;;;;;;;;;;5137103;27;20072;-72
2022/10/29 11:30:13;;;;;;;6.90;4.75;;;;;;;;;;5137925;27;20023;-73
2022/10/29 11:33:13;;;;;;;6.65;4.85;;;;;;;;;;5137924;27;20012;-73
2022/10/29 11:36:15;;;;;;;7.05;4.97;;;;;;;;;;5123448;27;20065;-73
2022/10/29 11:39:14;;;;;;;8.32;4.90;;;;;;;;;;5138305;27;20011;-74
2022/10/29 11:42:00;;;;;;;6.40;3.92;;;;;;;;;;5138582;27;20403;-72
2022/10/29 11:44:46;;;;;;;6.05;3.92;;;;;;;;;;5136592;27;20038;-73
2022/10/29 11:47:50;;;;;;;9.45;4.53;;;;;;;;;;5137531;27;20451;-73
2022/10/29 11:50:36;;;;;;;7.45;4.10;;;;;;;;;;5138262;27;20398;-73
2022/10/29 11:53:51;;;;;;;6.97;4.05;;;;;;;;;;5138484;27;20350;-73
2022/10/29 11:56:46;;;;;;;7.15;3.78;;;;;;;;;;5137754;27;20110;-72
2022/10/29 11:59:31;;;;;;;5.60;3.78;;;;;;;;;;5138347;27;20019;-73
2022/10/29 12:02:32;;;;;;;7.10;3.60;;;;;;;;;;5136159;27;20023;-73
2022/10/29 12:05:21;;;;;;;5.40;3.42;;;;;;;;;;5137885;27;20422;-73
2022/10/29 12:08:16;;;;;;;6.60;3.60;;;;;;;;;;5137043;27;20062;-73
2022/10/29 12:11:17;;;;;;;4.65;3.20;;;;;;;;;;5137510;27;20050;-72
2022/10/29 12:14:19;;;;;;;7.35;4.00;;;;;;;;;;5137668;27;20023;-72
2022/10/29 12:17:11;;;;;;;5.10;3.70;;;;;;;;;;5137594;27;20076;-73
2022/10/29 12:20:16;;;;;;;8.82;3.63;;;;;;;;;;5137777;27;20038;-72
2022/10/29 12:23:24;;;;;;;5.90;3.28;;;;;;;;;;5137578;27;20019;-72
2022/10/29 12:26:12;;;;;;;4.53;3.30;;;;;;;;;;5109151;27;20080;-73
2022/10/29 12:29:02;;;;;;;5.40;3.45;;;;;;;;;;5141501;27;20053;-72
2022/10/29 12:32:17;;;;;;;4.95;3.30;;;;;;;;;;5136185;27;20023;-72
2022/10/29 12:35:14;;;;;;;4.50;3.08;;;;;;;;;;5131622;27;20031;-72
2022/10/29 12:38:32;;;;;;;5.63;3.55;;;;;;;;;;5137586;27;20053;-72
2022/10/29 12:41:20;;;;;;;6.25;3.60;;;;;;;;;;5089474;27;20053;-74
2022/10/29 12:44:22;;;;;;;6.68;3.30;;;;;;;;;;5136858;27;20489;-74
2022/10/29 12:47:17;;;;;;;8.75;3.65;;;;;;;;;;5136910;27;20031;-73
2022/10/29 12:50:22;;;;;;;6.05;3.30;;;;;;;;;;5136992;27;20016;-73
2022/10/29 12:53:20;;;;;;;8.90;3.97;;;;;;;;;;5135358;27;20050;-75
2022/10/29 12:56:06;;;;;;;5.43;3.40;;;;;;;;;;5135138;27;20110;-72
2022/10/29 12:58:55;;;;;;;5.00;3.53;;;;;;;;;;5136524;27;20023;-74
2022/10/29 13:01:44;;;;;;;8.93;6.00;;;;;;;;;;5121540;27;20140;-73
2022/10/29 13:04:31;;;;;;;8.02;4.00;;;;;;;;;;5136041;27;20077;-73
2022/10/29 13:07:16;;;;;;;5.93;4.15;;;;;;;;;;5136618;27;20023;-73
2022/10/29 13:10:20;;;;;;;6.43;4.00;;;;;;;;;;5136777;27;20012;-73
2022/10/29 13:13:15;;;;;;;6.18;3.70;;;;;;;;;;5135513;27;20065;-74
2022/10/29 13:16:02;;;;;;;7.03;3.80;;;;;;;;;;5136487;27;20027;-74
2022/10/29 13:18:47;;;;;;;6.72;4.10;;;;;;;;;;5136221;27;20444;-73
2022/10/29 13:21:51;;;;;;;9.20;4.32;;;;;;;;;;5135725;27;20027;-73
2022/10/29 13:24:37;;;;;;;8.02;4.20;;;;;;;;;;5135071;27;20069;-74
2022/10/29 13:27:25;;;;;;;5.05;3.53;;;;;;;;;;5135446;27;20034;-73
2022/10/29 13:30:14;;;;;;;7.38;3.95;;;;;;;;;;5136046;27;20023;-73
2022/10/29 13:32:59;;;;;;;8.73;3.97;;;;;;;;;;5135657;27;20054;-73
2022/10/29 13:35:51;;;;;;;6.80;4.10;;;;;;;;;;5135455;27;20012;-72
2022/10/29 13:38:41;;;;;;;6.20;3.90;;;;;;;;;;5136066;27;20027;-73
2022/10/29 13:41:38;;;;;;;6.95;3.90;;;;;;;;;;5121193;27;20054;-74
2022/10/29 13:44:25;;;;;;;9.05;3.92;;;;;;;;;;5135927;27;20042;-73
2022/10/29 13:47:16;;;;;;;6.15;4.15;;;;;;;;;;5136146;27;20027;-72
2022/10/29 13:50:03;;;;;;;6.47;4.20;;;;;;;;;;5135608;27;20033;-73
2022/10/29 13:52:51;;;;;;;10.55;5.50;;;;;;;;;;5136066;27;20015;-72
2022/10/29 13:55:38;;;;;;;7.43;4.85;;;;;;;;;;5135187;27;20453;-72
2022/10/29 13:58:27;;;;;;;11.32;4.63;;;;;;;;;;5120234;27;20027;-73
2022/10/29 14:01:16;;;;;;;6.75;4.60;;;;;;;;;;5134994;27;20034;-73
2022/10/29 14:04:12;;;;;;;7.72;4.43;;;;;;;;;;5135796;27;20015;-72
2022/10/29 14:06:58;;;;;;;6.18;4.22;;;;;;;;;;5134828;27;20088;-72
2022/10/29 14:09:50;;;;;;;7.32;4.10;;;;;;;;;;5135037;28;20034;-72
2022/10/29 14:12:38;;;;;;;7.55;4.13;;;;;;;;;;5135798;28;20080;-73
2022/10/29 14:15:24;;;;;;;7.70;5.03;;;;;;;;;;5135907;28;20034;-72
2022/10/29 14:18:36;;;;;;;6.72;4.70;;;;;;;;;;5134674;28;20045;-73
2022/10/29 14:21:26;;;;;;;8.25;4.75;;;;;;;;;;5135352;28;20046;-73
2022/10/29 14:24:13;;;;;;;9.45;5.30;;;;;;;;;;5135912;28;20023;-72
2022/10/29 14:27:05;;;;;;;8.68;5.30;;;;;;;;;;5135113;28;20024;-73
2022/10/29 14:29:50;;;;;;;9.48;5.28;;;;;;;;;;5135386;28;20480;-72
2022/10/29 14:32:39;;;;;;;6.57;4.97;;;;;;;;;;5134702;28;20422;-73
2022/10/29 14:35:25;;;;;;;11.88;5.72;;;;;;;;;;5135313;28;20073;-72
2022/10/29 14:38:11;;;;;;;9.50;5.40;;;;;;;;;;5133769;28;20081;-73
2022/10/29 14:40:57;;;;;;;9.52;5.25;;;;;;;;;;5135571;28;20083;-73
2022/10/29 14:43:43;;;;;;;10.38;5.82;;;;;;;;;;5121040;28;20015;-73
2022/10/29 14:46:31;;;;;;;12.98;5.65;;;;;;;;;;5134586;28;20039;-72
2022/10/29 14:49:19;;;;;;;10.05;5.55;;;;;;;;;;5120272;28;20057;-72
2022/10/29 14:52:25;;;;;;;8.30;5.28;;;;;;;;;;5135775;28;20023;-72
2022/10/29 14:55:18;;;;;;;7.57;4.90;;;;;;;;;;5131512;28;20042;-73
2022/10/29 14:58:06;;;;;;;9.73;5.70;;;;;;;;;;5134954;28;20016;-73
2022/10/29 15:01:00;;;;;;;8.75;5.05;;;;;;;;;;5120502;28;20058;-74
2022/10/29 15:03:46;;;;;;;10.60;5.63;;;;;;;;;;5120555;28;20102;-73
2022/10/29 15:06:32;;;;;;;14.57;7.47;;;;;;;;;;5120018;28;20039;-73
2022/10/29 15:09:25;;;;;;;14.52;6.78;;;;;;;;;;5133602;28;20449;-72
2022/10/29 15:12:22;;;;;;;13.82;6.00;;;;;;;;;;5135475;28;20102;-73
2022/10/29 15:15:09;;;;;;;12.00;5.55;;;;;;;;;;5134004;28;20019;-72
2022/10/29 15:17:55;;;;;;;11.77;5.40;;;;;;;;;;5135918;27;20388;-71
2022/10/29 15:20:40;;;;;;;13.73;6.93;;;;;;;;;;5123413;27;20031;-72
2022/10/29 15:23:28;;;;;;;9.82;6.15;;;;;;;;;;5138808;27;20026;-73
2022/10/29 15:26:16;;;;;;;14.40;6.95;;;;;;;;;;5124435;27;20015;-73
2022/10/29 15:29:08;;;;;;;13.35;7.55;;;;;;;;;;5123995;27;20413;-72
2022/10/29 15:31:55;;;;;;;17.25;7.68;;;;;;;;;;5138420;27;20364;-73
2022/10/29 15:34:45;;;;;;;21.50;9.43;;;;;;;;;;5138855;27;20076;-72
2022/10/29 15:37:31;;;;;;;27.13;11.35;;;;;;;;;;5139058;27;20034;-74
2022/10/29 15:40:20;;;;;;;43.42;16.40;;;;;;;;;;5136547;27;20042;-75
2022/10/29 15:43:27;;;;;;;40.08;17.08;;;;;;;;;;5137091;27;20058;-73
2022/10/29 15:46:21;;;;;;;43.22;17.50;;;;;;;;;;5137353;27;20385;-73
2022/10/29 15:49:13;;;;;;;32.95;15.63;;;;;;;;;;5137034;27;20053;-72
2022/10/29 15:51:59;;;;;;;39.38;14.73;;;;;;;;;;5136331;27;20471;-74
2022/10/29 15:54:45;;;;;;;37.17;15.10;;;;;;;;;;5136912;27;20023;-72
2022/10/29 15:57:31;;;;;;;33.08;14.82;;;;;;;;;;5136174;27;20453;-74
2022/10/29 16:00:19;;;;;;;36.75;15.52;;;;;;;;;;5136238;27;20072;-73
2022/10/29 16:03:15;;;;;;;33.45;15.18;;;;;;;;;;5136412;27;20076;-73
2022/10/29 16:06:02;;;;;;;35.17;15.35;;;;;;;;;;5135954;27;20047;-75
2022/10/29 16:08:50;;;;;;;43.47;17.92;;;;;;;;;;5137159;27;20081;-75
2022/10/29 16:11:35;;;;;;;45.88;19.17;;;;;;;;;;5136049;27;20038;-75
2022/10/29 16:14:21;;;;;;;41.63;19.00;;;;;;;;;;5136027;27;20042;-77
2022/10/29 16:17:14;;;;;;;45.92;20.25;;;;;;;;;;5137347;27;20121;-73
2022/10/29 16:19:59;;;;;;;42.20;19.67;;;;;;;;;;5136233;27;20053;-73
2022/10/29 16:22:46;;;;;;;54.80;21.33;;;;;;;;;;5122671;27;20027;-73
2022/10/29 16:25:32;;;;;;;36.03;18.67;;;;;;;;;;5137900;27;20023;-76
2022/10/29 16:28:17;;;;;;;45.78;21.00;;;;;;;;;;5137380;27;20042;-74
2022/10/29 16:31:03;;;;;;;45.95;21.55;;;;;;;;;;5135955;27;20012;-73
2022/10/29 16:33:49;;;;;;;51.22;22.05;;;;;;;;;;5136236;27;20023;-74
2022/10/29 16:36:35;;;;;;;55.38;22.33;;;;;;;;;;5136067;27;20034;-74
2022/10/29 16:39:21;;;;;;;51.88;21.42;;;;;;;;;;5120873;27;20404;-73